Port Alto, Texas
Current Conditions -  °F | °C
As of 1:35 AM on Saturday 29 Nov 2014 (Local Time) from KPKV Reporting Station
Haze Haze  
Wind Chill: 58°   Ceiling: Unl
Heat Index: 58°   Visibility: 4mi
Dew Point: 58°   Wind: 3mph
Humidity: 99%   Direction: 170°S
Pressure: 30.12"   Gusts: NA
Location:  28.5342°N, 96.663°W
Report Text: KPKV 290735Z AUTO 17003KT 4SM BR CLR 15/15 A3012 RMK AO2 T01470145
Loading
Personal Weather Stations






























Interactive Weather Map New forecast layout! Learn more

10-Day Weather Forecast

Advertisements
Track Severe Weather on mobile